ITS Palinuro — IGMX — position and weather

sailwx.info

Track history (hours):
 
Tides and Currents Weather Stations Pressure Air Temp Water Temp Dewpoint Dewpoint Depression Visibility Wind Speed Wind Dir Waves Ship Positions

ITS Palinuro

Last reported at 2017-Sep-16 17:07 UTC. Time now 2017-Sep-21 01:41 UTC.
Position N 39°22' E 013°18'.

MMSI: 247939000.

Date/timePositionNaut miles runAvg speedWind from/ knotsBaromVisibWave heightAir tempDewpointWater temp
2017-Sep-16 17:07N 39°22' E 013°18'1 4.8
2017-Sep-16 16:48N 39°21' E 013°20'1 4.7
2017-Sep-16 16:30N 39°20' E 013°21'2 4.7
2017-Sep-16 16:00N 39°19' E 013°24'2 4.6
2017-Sep-16 15:30N 39°18' E 013°26'2 4.7
2017-Sep-16 15:00N 39°16' E 013°29'2 4.6
2017-Sep-16 14:29N 39°15' E 013°32'2 4.4
2017-Sep-16 14:00N 39°14' E 013°34'2 4.4
2017-Sep-16 13:30N 39°13' E 013°36'2 4.5
2017-Sep-16 13:00N 39°12' E 013°39'2 4.5
2017-Sep-16 12:30N 39°10' E 013°41'87 4.8
2017-Sep-15 18:07N 38°26' E 015°18'2 4.9
2017-Sep-15 17:43N 38°25' E 015°20'1 4.5
2017-Sep-15 17:28N 38°25' E 015°21'2 4.4
2017-Sep-15 17:00N 38°24' E 015°24'3 4.7
2017-Sep-15 16:25N 38°22' E 015°27'2 4.9
2017-Sep-15 15:58N 38°22' E 015°29'3 5.1
2017-Sep-15 15:28N 38°20' E 015°32'3 5.0
2017-Sep-15 14:55N 38°19' E 015°35'2 5.5
2017-Sep-15 14:29N 38°17' E 015°37'3 5.6
2017-Sep-15 13:59N 38°17' E 015°41'1 2.8
2017-Sep-15 13:30N 38°15' E 015°40'2 5.0
2017-Sep-15 13:00N 38°14' E 015°38'3 5.6
2017-Sep-15 12:30N 38°11' E 015°37'2 4.1
2017-Sep-15 12:00N 38°09' E 015°37'2 3.3
2017-Sep-15 11:30N 38°08' E 015°37'1 2.8
2017-Sep-15 11:00N 38°06' E 015°36'2 3.2
2017-Sep-15 10:29N 38°05' E 015°36'2 3.3
2017-Sep-15 10:00N 38°03' E 015°36'2 3.7
2017-Sep-15 09:30N 38°01' E 015°36'  
2017-Sep-11 09:18N 36°05' E 023°55'2 6.0
2017-Sep-11 09:01N 36°05' E 023°57'  
Track history (hours):
 
Tides and Currents Weather Stations Pressure Air Temp Water Temp Dewpoint Dewpoint Depression Visibility Wind Speed Wind Dir Waves Ship Positions

ITS Palinuro

Last reported at 2017-Sep-16 17:07 UTC. Time now 2017-Sep-21 01:41 UTC.
Position N 39°22' E 013°18'.

MMSI: 247939000.

Date/timePositionNaut miles runAvg speedWind from/ knotsBaromVisibWave heightAir tempDewpointWater temp
2017-Sep-16 17:07N 39°22' E 013°18'1 4.8
2017-Sep-16 16:48N 39°21' E 013°20'1 4.7
2017-Sep-16 16:30N 39°20' E 013°21'2 4.7
2017-Sep-16 16:00N 39°19' E 013°24'2 4.6
2017-Sep-16 15:30N 39°18' E 013°26'2 4.7
2017-Sep-16 15:00N 39°16' E 013°29'2 4.6
2017-Sep-16 14:29N 39°15' E 013°32'2 4.4
2017-Sep-16 14:00N 39°14' E 013°34'2 4.4
2017-Sep-16 13:30N 39°13' E 013°36'2 4.5
2017-Sep-16 13:00N 39°12' E 013°39'2 4.5
2017-Sep-16 12:30N 39°10' E 013°41'87 4.8
2017-Sep-15 18:07N 38°26' E 015°18'2 4.9
2017-Sep-15 17:43N 38°25' E 015°20'1 4.5
2017-Sep-15 17:28N 38°25' E 015°21'2 4.4
2017-Sep-15 17:00N 38°24' E 015°24'3 4.7
2017-Sep-15 16:25N 38°22' E 015°27'2 4.9
2017-Sep-15 15:58N 38°22' E 015°29'3 5.1
2017-Sep-15 15:28N 38°20' E 015°32'3 5.0
2017-Sep-15 14:55N 38°19' E 015°35'2 5.5
2017-Sep-15 14:29N 38°17' E 015°37'3 5.6
2017-Sep-15 13:59N 38°17' E 015°41'1 2.8
2017-Sep-15 13:30N 38°15' E 015°40'2 5.0
2017-Sep-15 13:00N 38°14' E 015°38'3 5.6
2017-Sep-15 12:30N 38°11' E 015°37'2 4.1
2017-Sep-15 12:00N 38°09' E 015°37'2 3.3
2017-Sep-15 11:30N 38°08' E 015°37'1 2.8
2017-Sep-15 11:00N 38°06' E 015°36'2 3.2
2017-Sep-15 10:29N 38°05' E 015°36'2 3.3
2017-Sep-15 10:00N 38°03' E 015°36'2 3.7
2017-Sep-15 09:30N 38°01' E 015°36'  
2017-Sep-11 09:18N 36°05' E 023°55'2 6.0
2017-Sep-11 09:01N 36°05' E 023°57'  

Dump ship's entire track history